createdAt,value
2023-02-15T00:02:20.855Z,26.33
2023-02-15T00:04:54.607Z,24.85
2023-02-15T00:07:24.049Z,25.23
2023-02-15T00:09:53.479Z,24.27
2023-02-15T00:12:22.971Z,24.92
2023-02-15T00:14:52.404Z,24.80
2023-02-15T00:17:21.863Z,24.35
2023-02-15T00:19:53.897Z,23.15
2023-02-15T00:22:24.448Z,24.10
2023-02-15T00:24:53.918Z,25.17
2023-02-15T00:27:23.419Z,25.63
2023-02-15T00:29:52.893Z,24.23
2023-02-15T00:32:22.349Z,23.02
2023-02-15T00:34:54.441Z,23.83
2023-02-15T00:37:23.887Z,23.25
2023-02-15T00:39:53.382Z,23.40
2023-02-15T00:42:22.855Z,25.25
2023-02-15T00:44:52.322Z,25.13
2023-02-15T00:47:21.778Z,24.92
2023-02-15T00:49:53.849Z,23.90
2023-02-15T00:52:23.287Z,22.85
2023-02-15T00:54:52.754Z,22.17
2023-02-15T00:57:22.208Z,23.92
2023-02-15T00:59:56.128Z,25.48
2023-02-15T01:02:25.580Z,26.58
2023-02-15T01:04:57.593Z,26.35
2023-02-15T01:07:27.021Z,25.90
2023-02-15T01:09:56.503Z,26.55
2023-02-15T01:12:25.929Z,25.58
2023-02-15T01:14:55.381Z,26.63
2023-02-15T01:17:24.839Z,25.17
2023-02-15T01:19:56.858Z,24.05
2023-02-15T01:22:26.304Z,24.45
2023-02-15T01:24:55.808Z,23.98
2023-02-15T01:27:25.251Z,25.00
2023-02-15T01:29:54.746Z,24.77
2023-02-15T01:32:24.201Z,24.65
2023-02-15T01:34:53.911Z,26.02
2023-02-15T01:37:26.120Z,25.88
2023-02-15T01:39:55.590Z,25.70
2023-02-15T01:42:25.364Z,26.80
2023-02-15T01:44:57.777Z,27.80
2023-02-15T01:47:37.389Z,25.92
2023-02-15T01:50:11.921Z,28.48
2023-02-15T01:52:44.771Z,26.88
2023-02-15T01:55:14.226Z,24.85
2023-02-15T01:57:43.661Z,24.10
2023-02-15T02:00:14.243Z,24.13
2023-02-15T02:02:43.763Z,25.30
2023-02-15T02:05:13.216Z,26.60
2023-02-15T02:07:47.568Z,26.35
2023-02-15T02:10:18.576Z,25.67
2023-02-15T02:15:17.890Z,26.20
2023-02-15T02:17:57.108Z,27.58
2023-02-15T02:20:41.381Z,25.20
2023-02-15T02:23:29.897Z,25.92
2023-02-15T02:26:29.507Z,25.30
2023-02-15T02:29:21.603Z,25.20
2023-02-15T02:32:05.595Z,24.45
2023-02-15T02:34:39.209Z,26.30
2023-02-15T02:37:12.306Z,25.77
2023-02-15T02:39:44.340Z,26.45
2023-02-15T02:42:16.094Z,26.42
2023-02-15T02:44:47.026Z,25.77
2023-02-15T02:47:19.157Z,25.85
2023-02-15T02:49:51.209Z,27.33
2023-02-15T02:52:39.038Z,25.35
2023-02-15T02:55:10.507Z,24.52
2023-02-15T02:57:40.644Z,24.88
2023-02-15T03:00:11.408Z,26.43
2023-02-15T03:02:41.777Z,22.80
2023-02-15T03:05:16.488Z,24.55
2023-02-15T03:07:45.977Z,23.30
2023-02-15T03:10:15.451Z,21.73
2023-02-15T03:12:44.916Z,22.50
2023-02-15T03:15:15.394Z,24.23
2023-02-15T03:17:45.451Z,25.73
2023-02-15T03:20:18.626Z,24.13
2023-02-15T03:22:49.798Z,24.13
2023-02-15T03:25:21.155Z,24.65
2023-02-15T03:27:52.630Z,23.33
2023-02-15T03:30:22.913Z,24.10
2023-02-15T03:32:52.670Z,23.50
2023-02-15T03:35:26.112Z,23.50
2023-02-15T03:37:57.231Z,23.42
2023-02-15T03:43:13.897Z,22.67
2023-02-15T03:45:55.833Z,24.02
2023-02-15T03:48:27.011Z,22.98
2023-02-15T03:51:13.103Z,22.60
2023-02-15T03:53:42.535Z,22.48
2023-02-15T03:56:12.018Z,23.58
2023-02-15T03:58:53.959Z,23.05
2023-02-15T04:01:38.752Z,22.33
2023-02-15T04:04:11.374Z,22.25
2023-02-15T04:06:43.443Z,22.95
2023-02-15T04:09:33.913Z,22.98
2023-02-15T04:12:03.594Z,23.13
2023-02-15T04:14:45.557Z,21.70
2023-02-15T04:17:15.156Z,21.92
2023-02-15T04:19:57.104Z,21.60
2023-02-15T04:22:41.634Z,21.38
2023-02-15T04:25:14.215Z,22.67
2023-02-15T04:27:46.040Z,21.60
2023-02-15T04:30:16.580Z,21.13
2023-02-15T04:32:46.092Z,21.75
2023-02-15T04:35:15.903Z,21.02
2023-02-15T04:37:48.001Z,20.40
2023-02-15T04:40:19.515Z,20.10
2023-02-15T04:42:51.156Z,21.52
2023-02-15T04:45:20.770Z,20.67
2023-02-15T04:47:50.468Z,20.70
2023-02-15T04:50:20.187Z,20.17
2023-02-15T04:52:52.260Z,22.40
2023-02-15T04:55:21.753Z,21.35
2023-02-15T04:57:51.230Z,19.95
2023-02-15T05:00:21.418Z,19.77
2023-02-15T05:02:50.862Z,18.95
2023-02-15T05:05:20.506Z,18.95
2023-02-15T05:07:52.567Z,18.85
2023-02-15T05:10:22.113Z,20.17
2023-02-15T05:12:51.608Z,19.58
2023-02-15T05:15:21.397Z,18.15
2023-02-15T05:17:50.875Z,18.55
2023-02-15T05:20:20.751Z,19.05
2023-02-15T05:22:52.801Z,17.90
2023-02-15T05:25:34.738Z,18.95
2023-02-15T05:28:16.718Z,19.10
2023-02-15T05:30:46.566Z,19.02
2023-02-15T05:33:16.201Z,17.88
2023-02-15T05:35:45.672Z,17.17
2023-02-15T05:38:17.779Z,17.38
2023-02-15T05:40:49.203Z,17.38
2023-02-15T05:43:19.592Z,17.75
2023-02-15T05:45:49.164Z,17.67
2023-02-15T05:48:18.693Z,17.50
2023-02-15T05:50:48.289Z,17.30
2023-02-15T05:53:20.333Z,16.58
2023-02-15T05:55:49.800Z,17.02
2023-02-15T05:58:19.282Z,17.98
2023-02-15T06:00:48.916Z,16.65
2023-02-15T06:03:18.448Z,18.48
2023-02-15T06:05:47.865Z,18.05
2023-02-15T06:08:19.924Z,19.52
2023-02-15T06:10:49.376Z,18.65
2023-02-15T06:13:18.904Z,17.02
2023-02-15T06:15:48.369Z,16.63
2023-02-15T06:18:17.845Z,17.23
2023-02-15T06:20:49.124Z,16.25
2023-02-15T06:23:21.286Z,16.20
2023-02-15T06:25:50.745Z,17.45
2023-02-15T06:28:20.236Z,16.75
2023-02-15T06:30:50.025Z,17.00
2023-02-15T06:33:19.529Z,17.00
2023-02-15T06:35:49.151Z,15.93
2023-02-15T06:38:21.252Z,16.00
2023-02-15T06:40:50.743Z,17.00
2023-02-15T06:45:49.419Z,16.17
2023-02-15T06:48:18.859Z,16.55
2023-02-15T06:50:48.282Z,16.00
2023-02-15T06:53:17.761Z,16.23
2023-02-15T06:55:49.801Z,15.93
2023-02-15T06:58:19.239Z,16.35
2023-02-15T07:00:50.420Z,15.80
2023-02-15T07:03:20.021Z,15.80
2023-02-15T07:05:50.148Z,15.43
2023-02-15T07:08:21.089Z,17.00
2023-02-15T07:10:53.138Z,15.35
2023-02-15T07:13:20.000Z,15.70
2023-02-15T07:15:50.545Z,15.35
2023-02-15T07:18:20.182Z,17.05
2023-02-15T07:20:50.057Z,16.23
2023-02-15T07:23:19.522Z,15.98
2023-02-15T07:25:49.038Z,15.70
2023-02-15T07:28:21.104Z,16.05
2023-02-15T07:30:50.786Z,15.50
2023-02-15T07:33:29.934Z,16.00
2023-02-15T07:36:00.643Z,16.40
2023-02-15T07:38:30.785Z,16.08
2023-02-15T07:41:01.724Z,16.20
2023-02-15T07:43:33.894Z,18.35
2023-02-15T07:46:03.779Z,16.75
2023-02-15T07:48:33.452Z,15.03
2023-02-15T07:51:03.028Z,15.38
2023-02-15T07:53:32.635Z,14.77
2023-02-15T07:56:02.761Z,15.77
2023-02-15T07:58:47.269Z,15.75
2023-02-15T08:01:16.737Z,15.20
2023-02-15T08:03:46.237Z,16.40
2023-02-15T08:06:15.728Z,15.60
2023-02-15T08:08:45.536Z,16.48
2023-02-15T08:11:32.277Z,15.40
2023-02-15T08:14:05.042Z,16.98
2023-02-15T08:16:36.121Z,18.95
2023-02-15T08:21:35.794Z,15.50
2023-02-15T08:24:05.691Z,15.40
2023-02-15T08:26:35.169Z,15.95
2023-02-15T08:29:07.611Z,15.73
2023-02-15T08:31:38.561Z,14.93
2023-02-15T08:36:37.544Z,14.65
2023-02-15T08:39:08.334Z,14.02
2023-02-15T08:41:38.644Z,12.85
2023-02-15T08:44:11.830Z,13.85
2023-02-15T08:46:42.616Z,14.07
2023-02-15T08:49:12.501Z,13.73
2023-02-15T08:51:42.162Z,14.40
2023-02-15T08:54:12.533Z,14.07
2023-02-15T08:56:43.244Z,13.65
2023-02-15T08:59:18.736Z,12.75
2023-02-15T09:01:48.575Z,12.55
2023-02-15T09:04:18.056Z,13.23
2023-02-15T09:06:49.230Z,13.32
2023-02-15T09:09:19.130Z,13.85
2023-02-15T09:11:52.952Z,13.35
2023-02-15T09:14:27.678Z,12.95
2023-02-15T09:16:57.444Z,13.60
2023-02-15T09:19:27.197Z,13.63
2023-02-15T09:21:56.734Z,13.85
2023-02-15T09:24:26.317Z,13.40
2023-02-15T09:26:55.814Z,14.00
2023-02-15T09:29:27.876Z,13.85
2023-02-15T09:31:57.405Z,13.80
2023-02-15T09:34:27.243Z,14.60
2023-02-15T09:36:56.699Z,14.85
2023-02-15T09:39:27.685Z,14.82
2023-02-15T09:45:07.914Z,14.63
2023-02-15T09:47:59.414Z,13.93
2023-02-15T09:50:32.393Z,13.90
2023-02-15T09:53:20.673Z,14.25
2023-02-15T09:55:55.003Z,13.80
2023-02-15T09:58:28.943Z,13.82
2023-02-15T10:01:02.933Z,12.82
2023-02-15T10:03:46.874Z,12.82
2023-02-15T10:06:31.131Z,13.45
2023-02-15T10:09:15.537Z,13.18
2023-02-15T10:11:52.829Z,13.30
2023-02-15T10:14:38.989Z,13.70
2023-02-15T10:17:22.685Z,13.30
2023-02-15T10:20:00.148Z,12.82
2023-02-15T10:22:33.837Z,13.63
2023-02-15T10:25:19.415Z,12.93
2023-02-15T10:27:50.043Z,11.75
2023-02-15T10:30:19.773Z,13.05
2023-02-15T10:32:58.588Z,13.75
2023-02-15T10:35:30.187Z,12.85
2023-02-15T10:38:17.893Z,13.75
2023-02-15T10:40:53.684Z,12.43
2023-02-15T10:43:50.517Z,13.25
2023-02-15T10:46:27.145Z,12.98
2023-02-15T10:49:16.469Z,12.35
2023-02-15T10:51:51.454Z,12.32
2023-02-15T10:54:26.173Z,12.00
2023-02-15T10:56:59.930Z,12.85
2023-02-15T10:59:37.728Z,13.48
2023-02-15T11:02:11.544Z,12.95
2023-02-15T11:04:49.562Z,12.65
2023-02-15T11:07:21.383Z,12.95
2023-02-15T11:09:52.173Z,13.00
2023-02-15T11:12:23.921Z,12.45
2023-02-15T11:14:55.539Z,13.20
2023-02-15T11:17:26.261Z,13.52
2023-02-15T11:20:03.849Z,14.05
2023-02-15T11:22:33.656Z,13.30
2023-02-15T11:25:03.197Z,13.98
2023-02-15T11:27:34.238Z,13.20
2023-02-15T11:32:34.996Z,13.23
2023-02-15T11:35:09.244Z,13.25
2023-02-15T11:37:40.777Z,13.77
2023-02-15T11:40:19.684Z,13.60
2023-02-15T11:42:50.939Z,13.85
2023-02-15T11:45:27.026Z,14.30
2023-02-15T11:47:56.710Z,14.02
2023-02-15T11:50:30.123Z,14.57
2023-02-15T11:53:01.872Z,13.98
2023-02-15T11:55:31.624Z,14.23
2023-02-15T11:58:03.295Z,14.40
2023-02-15T12:00:37.168Z,14.98
2023-02-15T12:03:12.425Z,14.45
2023-02-15T12:05:45.154Z,14.82
2023-02-15T12:08:18.904Z,14.27
2023-02-15T12:10:57.133Z,15.02
2023-02-15T12:13:26.565Z,13.77
2023-02-15T12:15:57.055Z,13.68
2023-02-15T12:18:37.667Z,13.52
2023-02-15T12:21:11.200Z,15.50
2023-02-15T12:23:45.420Z,14.35
2023-02-15T12:26:14.933Z,14.23
2023-02-15T12:28:45.418Z,13.98
2023-02-15T12:31:23.747Z,15.63
2023-02-15T12:33:55.066Z,14.40
2023-02-15T12:36:29.047Z,14.13
2023-02-15T12:39:13.027Z,15.15
2023-02-15T12:41:43.169Z,14.73
2023-02-15T12:44:20.072Z,14.57
2023-02-15T12:47:00.326Z,13.45
2023-02-15T12:49:29.949Z,15.27
2023-02-15T12:52:02.356Z,14.52
2023-02-15T12:54:35.385Z,14.38
2023-02-15T12:57:25.730Z,13.95
2023-02-15T12:59:56.924Z,13.90
2023-02-15T13:02:29.053Z,13.65
2023-02-15T13:04:59.397Z,14.48
2023-02-15T13:07:33.838Z,15.05
2023-02-15T13:10:03.307Z,28.73
2023-02-15T13:12:34.497Z,14.32
2023-02-15T13:15:05.644Z,15.20
2023-02-15T13:17:35.815Z,14.25
2023-02-15T13:20:08.622Z,14.43
2023-02-15T13:22:44.017Z,14.63
2023-02-15T13:25:16.597Z,14.73
2023-02-15T13:27:46.485Z,15.05
2023-02-15T13:30:27.204Z,14.75
2023-02-15T13:32:58.762Z,15.07
2023-02-15T13:35:28.227Z,14.60
2023-02-15T13:38:13.877Z,15.68
2023-02-15T13:40:46.737Z,14.65
2023-02-15T13:43:23.988Z,15.52
2023-02-15T13:46:01.191Z,14.88
2023-02-15T13:48:46.826Z,14.77
2023-02-15T13:51:23.025Z,16.15
2023-02-15T13:54:05.325Z,14.90
2023-02-15T13:56:41.042Z,15.57
2023-02-15T13:59:31.240Z,14.77
2023-02-15T14:02:01.910Z,14.73
2023-02-15T14:04:46.667Z,15.88
2023-02-15T14:07:43.645Z,17.00
2023-02-15T14:10:28.245Z,16.63
2023-02-15T14:13:06.423Z,16.95
2023-02-15T14:15:40.165Z,16.13
2023-02-15T14:18:20.457Z,16.67
2023-02-15T14:20:56.188Z,16.23
2023-02-15T14:23:36.031Z,16.08
2023-02-15T14:26:10.942Z,17.42
2023-02-15T14:28:44.038Z,16.88
2023-02-15T14:31:14.617Z,15.73
2023-02-15T14:33:46.711Z,16.42
2023-02-15T14:36:20.443Z,16.45
2023-02-15T14:38:58.587Z,16.35
2023-02-15T14:41:31.090Z,16.23
2023-02-15T14:44:04.526Z,16.17
2023-02-15T14:46:35.803Z,15.80
2023-02-15T14:49:09.302Z,16.15
2023-02-15T14:52:08.137Z,16.75
2023-02-15T14:55:01.839Z,16.52
2023-02-15T14:57:37.796Z,17.30
2023-02-15T15:00:41.133Z,16.80
2023-02-15T15:03:24.668Z,17.25
2023-02-15T15:05:55.426Z,16.92
2023-02-15T15:08:32.274Z,16.95
2023-02-15T15:11:01.796Z,21.02
2023-02-15T15:14:00.700Z,16.83
2023-02-15T15:16:50.842Z,16.48
2023-02-15T15:19:52.334Z,17.25
2023-02-15T15:22:22.397Z,17.00
2023-02-15T15:24:56.447Z,17.75
2023-02-15T15:27:46.905Z,16.92
2023-02-15T15:30:47.623Z,17.98
2023-02-15T15:33:28.363Z,16.70
2023-02-15T15:36:05.893Z,18.25
2023-02-15T15:38:39.205Z,16.58
2023-02-15T15:41:21.048Z,17.40
2023-02-15T15:44:23.706Z,17.60
2023-02-15T15:47:10.502Z,17.40
2023-02-15T15:49:42.799Z,18.42
2023-02-15T15:52:16.349Z,18.27
2023-02-15T15:54:45.902Z,19.25
2023-02-15T15:57:18.613Z,17.52
2023-02-15T15:59:48.867Z,18.67
2023-02-15T16:02:19.187Z,21.45
2023-02-15T16:04:51.333Z,19.05
2023-02-15T16:07:27.478Z,18.42
2023-02-15T16:10:01.338Z,18.48
2023-02-15T16:12:34.091Z,17.77
2023-02-15T16:15:05.218Z,17.63
2023-02-15T16:20:09.943Z,18.77
2023-02-15T16:22:39.376Z,19.15
2023-02-15T16:25:33.185Z,19.33
2023-02-15T16:28:10.121Z,19.30
2023-02-15T16:30:40.746Z,18.58
2023-02-15T16:33:11.039Z,18.35
2023-02-15T16:35:44.101Z,19.10
2023-02-15T16:38:13.857Z,19.48
2023-02-15T16:40:53.523Z,19.13
2023-02-15T16:43:26.338Z,18.40
2023-02-15T16:45:56.331Z,19.55
2023-02-15T16:48:26.130Z,19.75
2023-02-15T16:50:59.511Z,18.95
2023-02-15T16:53:30.154Z,19.33
2023-02-15T16:56:00.743Z,19.38
2023-02-15T16:58:32.459Z,19.65
2023-02-15T17:01:03.988Z,20.50
2023-02-15T17:03:33.645Z,19.38
2023-02-15T17:06:07.927Z,19.75
2023-02-15T17:08:38.066Z,20.17
2023-02-15T17:11:18.963Z,19.80
2023-02-15T17:14:24.522Z,20.33
2023-02-15T17:16:54.663Z,20.02
2023-02-15T17:19:27.170Z,19.93
2023-02-15T17:22:00.271Z,20.75
2023-02-15T17:24:36.352Z,20.23
2023-02-15T17:27:07.615Z,20.98
2023-02-15T17:29:38.330Z,20.08
2023-02-15T17:32:08.432Z,21.30
2023-02-15T17:35:04.305Z,21.95
2023-02-15T17:37:46.396Z,21.25
2023-02-15T17:40:22.963Z,21.52
2023-02-15T17:42:52.501Z,21.38
2023-02-15T17:45:22.243Z,21.48
2023-02-15T17:47:52.333Z,21.23
2023-02-15T17:50:24.151Z,20.63
2023-02-15T17:52:56.692Z,21.65
2023-02-15T17:55:36.609Z,21.63
2023-02-15T17:58:06.953Z,21.33
2023-02-15T18:00:50.548Z,22.70
2023-02-15T18:03:32.546Z,21.92
2023-02-15T18:06:14.516Z,22.25
2023-02-15T18:08:59.140Z,22.20
2023-02-15T18:11:38.844Z,23.52
2023-02-15T18:14:08.940Z,21.88
2023-02-15T18:16:40.864Z,23.00
2023-02-15T18:19:12.763Z,22.60
2023-02-15T18:21:42.318Z,23.35
2023-02-15T18:24:19.842Z,22.92
2023-02-15T18:26:49.632Z,21.60
2023-02-15T18:29:19.087Z,22.10
2023-02-15T18:31:49.307Z,23.58
2023-02-15T18:34:25.028Z,24.35
2023-02-15T18:36:54.501Z,24.35
2023-02-15T18:39:32.260Z,23.75
2023-02-15T18:44:30.917Z,25.00
2023-02-15T18:47:00.337Z,24.15
2023-02-15T18:49:29.895Z,24.65
2023-02-15T18:51:59.382Z,24.58
2023-02-15T18:54:31.710Z,26.13
2023-02-15T18:57:01.817Z,24.90
2023-02-15T18:59:32.305Z,24.95
2023-02-15T19:02:02.107Z,26.52
2023-02-15T19:04:32.400Z,25.35
2023-02-15T19:07:01.880Z,24.83
2023-02-15T19:09:33.984Z,24.88
2023-02-15T19:12:03.439Z,24.63
2023-02-15T19:14:33.647Z,25.50
2023-02-15T19:17:03.266Z,24.80
2023-02-15T19:19:32.793Z,25.10
2023-02-15T19:22:02.210Z,25.00
2023-02-15T19:24:36.530Z,25.23
2023-02-15T19:27:06.026Z,25.55
2023-02-15T19:29:35.489Z,24.73
2023-02-15T19:32:05.035Z,26.20
2023-02-15T19:34:34.670Z,26.63
2023-02-15T19:37:04.217Z,25.08
2023-02-15T19:39:38.055Z,24.77
2023-02-15T19:42:07.696Z,26.85
2023-02-15T19:44:37.144Z,25.02
2023-02-15T19:47:06.684Z,25.30
2023-02-15T19:49:36.157Z,25.10
2023-02-15T19:52:05.620Z,25.55
2023-02-15T19:54:38.477Z,25.83
2023-02-15T19:57:09.466Z,26.02
2023-02-15T20:02:08.257Z,24.98
2023-02-15T20:04:37.758Z,26.35
2023-02-15T20:07:07.222Z,25.45
2023-02-15T20:09:40.940Z,25.58
2023-02-15T20:12:17.425Z,26.17
2023-02-15T20:14:46.905Z,25.35
2023-02-15T20:17:16.354Z,26.67
2023-02-15T20:19:46.452Z,27.10
2023-02-15T20:22:23.446Z,25.53
2023-02-15T20:24:56.276Z,28.15
2023-02-15T20:27:26.642Z,27.58
2023-02-15T20:29:56.873Z,28.88
2023-02-15T20:32:27.018Z,28.92
2023-02-15T20:34:56.606Z,28.07
2023-02-15T20:37:28.753Z,29.13
2023-02-15T20:40:00.814Z,28.63
2023-02-15T20:42:30.327Z,28.38
2023-02-15T20:44:59.816Z,27.92
2023-02-15T20:47:29.272Z,28.00
2023-02-15T20:49:59.256Z,28.08
2023-02-15T20:52:28.689Z,28.13
2023-02-15T20:55:00.774Z,27.23
2023-02-15T20:57:30.296Z,26.52
2023-02-15T20:59:59.751Z,27.08
2023-02-15T21:02:29.228Z,28.17
2023-02-15T21:05:00.364Z,27.45
2023-02-15T21:07:29.801Z,28.05
2023-02-15T21:10:01.964Z,28.45
2023-02-15T21:12:31.466Z,27.23
2023-02-15T21:15:00.938Z,27.98
2023-02-15T21:17:30.388Z,28.55
2023-02-15T21:19:59.854Z,26.00
2023-02-15T21:22:29.334Z,27.30
2023-02-15T21:25:02.756Z,27.88
2023-02-15T21:27:32.339Z,26.50
2023-02-15T21:30:01.807Z,27.45
2023-02-15T21:32:31.403Z,28.58
2023-02-15T21:35:01.013Z,27.40
2023-02-15T21:37:32.387Z,27.58
2023-02-15T21:40:07.158Z,29.05
2023-02-15T21:43:00.690Z,28.48
2023-02-15T21:45:42.760Z,27.85
2023-02-15T21:48:12.201Z,27.92
2023-02-15T21:50:54.215Z,27.33
2023-02-15T21:53:24.783Z,28.13
2023-02-15T21:55:58.073Z,28.45
2023-02-15T21:58:28.703Z,29.58
2023-02-15T22:00:58.316Z,29.05
2023-02-15T22:03:28.262Z,26.73
2023-02-15T22:05:58.013Z,26.92
2023-02-15T22:08:27.522Z,27.27
2023-02-15T22:10:59.668Z,28.73
2023-02-15T22:13:30.747Z,29.50
2023-02-15T22:58:37.980Z,26.02
2023-02-15T23:01:07.779Z,27.13
2023-02-15T23:03:37.477Z,28.15
2023-02-15T23:06:09.060Z,27.52
2023-02-15T23:08:38.529Z,27.33
2023-02-15T23:11:08.686Z,26.92
2023-02-15T23:13:40.989Z,25.67
2023-02-15T23:16:10.752Z,26.92
2023-02-15T23:18:41.036Z,26.38
2023-02-15T23:21:15.081Z,25.80
2023-02-15T23:23:45.318Z,26.30
2023-02-15T23:26:18.099Z,25.17
2023-02-15T23:28:50.562Z,26.63
2023-02-15T23:31:22.412Z,28.20
2023-02-15T23:33:52.659Z,31.15
2023-02-15T23:36:27.975Z,27.03
2023-02-15T23:38:57.533Z,27.15
2023-02-15T23:43:58.214Z,27.20
2023-02-15T23:46:29.644Z,25.75
2023-02-15T23:48:59.190Z,25.27
2023-02-15T23:51:31.889Z,26.52
2023-02-15T23:54:01.411Z,28.98
2023-02-15T23:56:31.054Z,29.75
2023-02-15T23:59:03.094Z,27.75
